createdAt,value
2019-06-01T00:00:46.261Z,88.70
2019-06-01T00:03:17.446Z,88.90
2019-06-01T00:05:48.750Z,89.00
2019-06-01T00:08:18.352Z,89.20
2019-06-01T00:10:47.875Z,89.20
2019-06-01T00:13:17.306Z,89.30
2019-06-01T00:16:06.123Z,89.40
2019-06-01T00:18:35.582Z,89.60
2019-06-01T00:21:05.051Z,89.60
2019-06-01T00:23:34.490Z,89.60
2019-06-01T00:26:04.011Z,89.60
2019-06-01T00:28:33.626Z,89.50
2019-06-01T00:31:02.972Z,89.50
2019-06-01T00:33:32.507Z,89.40
2019-06-01T00:36:02.025Z,89.40
2019-06-01T00:38:31.490Z,89.40
2019-06-01T00:41:00.930Z,89.60
2019-06-01T00:43:30.379Z,89.90
2019-06-01T00:45:59.840Z,89.80
2019-06-01T00:48:29.304Z,90.00
2019-06-01T00:50:58.756Z,90.00
2019-06-01T00:53:28.302Z,90.20
2019-06-01T00:55:57.756Z,90.20
2019-06-01T00:58:27.180Z,90.30
2019-06-01T01:00:56.651Z,90.30
2019-06-01T01:03:26.090Z,90.40
2019-06-01T01:06:01.911Z,90.40
2019-06-01T01:08:31.380Z,90.60
2019-06-01T01:11:00.837Z,90.50
2019-06-01T01:13:30.318Z,90.50
2019-06-01T01:16:11.551Z,90.50
2019-06-01T01:18:41.017Z,90.60
2019-06-01T01:21:10.913Z,91.00
2019-06-01T01:23:40.442Z,90.80
2019-06-01T01:26:09.911Z,90.80
2019-06-01T01:28:39.374Z,90.80
2019-06-01T01:31:13.762Z,90.90
2019-06-01T01:33:41.124Z,90.80
2019-06-01T01:36:10.619Z,90.90
2019-06-01T01:38:40.046Z,90.90
2019-06-01T01:41:09.510Z,90.80
2019-06-01T01:43:39.047Z,90.80
2019-06-01T01:46:08.531Z,90.90
2019-06-01T01:48:38.003Z,90.90
2019-06-01T01:51:07.439Z,90.90
2019-06-01T01:53:36.903Z,90.90
2019-06-01T01:56:06.419Z,90.90
2019-06-01T01:58:35.870Z,90.90
2019-06-01T02:01:21.554Z,90.90
2019-06-01T02:03:36.485Z,90.90
2019-06-01T02:06:06.002Z,90.90
2019-06-01T02:08:35.449Z,90.90
2019-06-01T02:11:05.039Z,90.90
2019-06-01T02:13:34.490Z,90.90
2019-06-01T02:16:04.000Z,90.90
2019-06-01T02:18:33.456Z,90.90
2019-06-01T02:21:04.151Z,90.90
2019-06-01T02:23:33.621Z,90.90
2019-06-01T02:26:03.374Z,90.80
2019-06-01T02:28:32.847Z,90.90
2019-06-01T02:31:03.888Z,90.90
2019-06-01T02:33:33.567Z,90.90
2019-06-01T02:36:04.889Z,90.80
2019-06-01T02:38:34.108Z,90.80
2019-06-01T02:41:05.499Z,90.90
2019-06-01T02:43:34.703Z,91.20
2019-06-01T02:46:06.640Z,90.90
2019-06-01T02:48:35.311Z,90.90
2019-06-01T02:51:05.519Z,90.90
2019-06-01T02:53:35.006Z,91.00
2019-06-01T02:56:04.555Z,91.00
2019-06-01T02:58:33.986Z,91.00
2019-06-01T03:01:24.503Z,91.10
2019-06-01T03:03:55.470Z,91.10
2019-06-01T03:06:28.030Z,91.10
2019-06-01T03:09:01.689Z,91.50
2019-06-01T03:11:36.589Z,91.10
2019-06-01T03:14:08.913Z,91.20
2019-06-01T03:16:40.461Z,91.20
2019-06-01T03:19:11.967Z,91.20
2019-06-01T03:21:44.007Z,91.20
2019-06-01T03:24:13.618Z,91.20
2019-06-01T03:26:46.494Z,91.20
2019-06-01T03:29:18.611Z,91.20
2019-06-01T03:31:48.210Z,91.20
2019-06-01T03:34:17.728Z,91.20
2019-06-01T03:36:47.652Z,91.20
2019-06-01T03:39:17.335Z,91.30
2019-06-01T03:41:46.860Z,91.30
2019-06-01T03:44:16.374Z,91.20
2019-06-01T03:46:45.831Z,91.20
2019-06-01T03:49:15.294Z,91.20
2019-06-01T03:51:44.741Z,91.30
2019-06-01T03:54:14.240Z,91.30
2019-06-01T03:56:43.715Z,91.30
2019-06-01T03:59:13.163Z,91.20
2019-06-01T04:01:42.632Z,91.20
2019-06-01T04:04:12.084Z,91.10
2019-06-01T04:06:42.497Z,91.10
2019-06-01T04:09:18.086Z,91.20
2019-06-01T04:11:49.171Z,90.90
2019-06-01T04:14:18.625Z,90.90
2019-06-01T04:16:48.083Z,90.90
2019-06-01T04:19:18.624Z,90.80
2019-06-01T04:21:48.091Z,90.70
2019-06-01T04:24:17.559Z,90.70
2019-06-01T04:26:47.007Z,90.50
2019-06-01T04:29:16.515Z,90.50
2019-06-01T04:31:46.001Z,90.50
2019-06-01T04:34:15.459Z,90.40
2019-06-01T04:36:44.895Z,90.30
2019-06-01T04:39:14.369Z,90.20
2019-06-01T04:41:43.894Z,90.10
2019-06-01T04:44:14.348Z,90.00
2019-06-01T04:46:44.983Z,90.00
2019-06-01T04:49:14.983Z,89.50
2019-06-01T04:51:44.589Z,89.00
2019-06-01T04:54:15.544Z,88.70
2019-06-01T04:56:45.152Z,88.50
2019-06-01T04:59:15.335Z,88.40
2019-06-01T05:01:44.936Z,87.90
2019-06-01T05:04:17.171Z,87.60
2019-06-01T05:06:46.811Z,87.20
2019-06-01T05:09:16.295Z,86.80
2019-06-01T05:11:45.844Z,86.40
2019-06-01T05:14:16.537Z,86.10
2019-06-01T05:16:46.325Z,84.90
2019-06-01T05:19:16.608Z,84.10
2019-06-01T05:21:46.242Z,83.80
2019-06-01T05:24:16.931Z,83.40
2019-06-01T05:26:46.645Z,83.50
2019-06-01T05:29:17.776Z,83.50
2019-06-01T05:31:47.178Z,83.20
2019-06-01T05:34:20.370Z,82.80
2019-06-01T05:36:49.835Z,82.50
2019-06-01T05:39:19.282Z,81.80
2019-06-01T05:42:02.323Z,80.60
2019-06-01T05:44:31.846Z,80.30
2019-06-01T05:47:01.314Z,80.60
2019-06-01T05:49:36.469Z,80.60
2019-06-01T05:52:06.088Z,80.30
2019-06-01T05:54:35.539Z,79.90
2019-06-01T05:57:05.057Z,79.70
2019-06-01T05:59:34.511Z,79.30
2019-06-01T06:02:04.024Z,78.70
2019-06-01T06:04:34.569Z,78.40
2019-06-01T06:07:04.073Z,78.10
2019-06-01T06:09:34.283Z,77.70
2019-06-01T06:12:03.849Z,77.50
2019-06-01T06:14:33.301Z,77.10
2019-06-01T06:17:02.789Z,76.70
2019-06-01T06:19:32.236Z,76.10
2019-06-01T06:22:01.677Z,75.70
2019-06-01T06:24:31.139Z,75.10
2019-06-01T06:27:00.620Z,74.40
2019-06-01T06:29:30.054Z,73.60
2019-06-01T06:31:59.496Z,73.00
2019-06-01T06:34:28.973Z,72.50
2019-06-01T06:36:58.419Z,71.90
2019-06-01T06:39:27.879Z,71.30
2019-06-01T06:41:57.363Z,70.80
2019-06-01T06:44:26.805Z,71.10
2019-06-01T06:46:56.264Z,70.60
2019-06-01T06:49:25.894Z,69.90
2019-06-01T06:51:55.379Z,69.20
2019-06-01T06:54:25.936Z,69.40
2019-06-01T06:56:55.495Z,69.00
2019-06-01T06:59:24.971Z,68.40
2019-06-01T07:01:54.401Z,67.80
2019-06-01T07:04:23.875Z,67.60
2019-06-01T07:06:53.350Z,66.40
2019-06-01T07:09:23.961Z,66.60
2019-06-01T07:11:53.531Z,67.30
2019-06-01T07:14:23.465Z,65.70
2019-06-01T07:16:53.034Z,65.50
2019-06-01T07:19:23.658Z,66.10
2019-06-01T07:21:53.254Z,65.90
2019-06-01T07:24:23.798Z,65.60
2019-06-01T07:26:53.443Z,64.90
2019-06-01T07:29:24.116Z,64.30
2019-06-01T07:31:53.706Z,64.30
2019-06-01T07:34:35.487Z,64.20
2019-06-01T07:36:55.205Z,63.70
2019-06-01T07:39:24.923Z,63.10
2019-06-01T07:41:54.452Z,62.30
2019-06-01T07:44:25.022Z,62.10
2019-06-01T07:46:54.542Z,62.20
2019-06-01T07:49:24.984Z,62.30
2019-06-01T07:51:54.636Z,62.70
2019-06-01T07:54:24.880Z,62.30
2019-06-01T07:56:54.438Z,62.50
2019-06-01T07:59:24.518Z,61.60
2019-06-01T08:01:55.033Z,61.50
2019-06-01T08:04:26.296Z,61.40
2019-06-01T08:06:55.727Z,61.30
2019-06-01T08:09:26.567Z,61.10
2019-06-01T08:11:56.269Z,60.60
2019-06-01T08:14:26.502Z,60.60
2019-06-01T08:16:56.096Z,61.60
2019-06-01T08:19:26.512Z,61.70
2019-06-01T08:21:55.983Z,61.40
2019-06-01T08:24:26.219Z,61.40
2019-06-01T08:26:55.921Z,61.10
2019-06-01T08:29:26.533Z,60.30
2019-06-01T08:31:57.260Z,60.30
2019-06-01T08:34:26.970Z,60.20
2019-06-01T08:36:56.476Z,59.70
2019-06-01T08:39:27.270Z,59.50
2019-06-01T08:41:56.960Z,59.60
2019-06-01T08:44:27.585Z,59.60
2019-06-01T08:46:57.416Z,59.40
2019-06-01T08:49:27.987Z,59.10
2019-06-01T08:51:57.647Z,58.90
2019-06-01T08:54:28.107Z,58.70
2019-06-01T08:56:57.678Z,57.90
2019-06-01T08:59:28.272Z,57.40
2019-06-01T09:01:57.953Z,57.20
2019-06-01T09:04:28.731Z,57.20
2019-06-01T09:06:58.399Z,57.80
2019-06-01T09:09:31.005Z,57.40
2019-06-01T09:12:00.537Z,56.90
2019-06-01T09:14:31.235Z,56.60
2019-06-01T09:17:00.850Z,56.40
2019-06-01T09:19:31.418Z,56.20
2019-06-01T09:22:01.172Z,56.40
2019-06-01T09:24:31.853Z,56.20
2019-06-01T09:27:01.595Z,56.00
2019-06-01T09:29:32.085Z,56.50
2019-06-01T09:32:01.831Z,56.30
2019-06-01T09:34:32.408Z,56.20
2019-06-01T09:37:01.921Z,56.00
2019-06-01T09:39:33.154Z,55.90
2019-06-01T09:42:02.678Z,55.70
2019-06-01T09:44:33.483Z,55.60
2019-06-01T09:47:04.782Z,55.80
2019-06-01T09:49:35.696Z,55.50
2019-06-01T09:52:05.477Z,55.30
2019-06-01T09:54:36.289Z,55.70
2019-06-01T09:57:06.170Z,55.80
2019-06-01T09:59:36.059Z,55.80
2019-06-01T10:02:05.680Z,55.70
2019-06-01T10:04:36.466Z,55.70
2019-06-01T10:07:06.135Z,55.40
2019-06-01T10:09:35.794Z,55.40
2019-06-01T10:12:05.703Z,55.50
2019-06-01T10:14:36.205Z,55.10
2019-06-01T10:17:05.650Z,55.30
2019-06-01T10:19:35.075Z,54.70
2019-06-01T10:22:04.647Z,54.80
2019-06-01T10:24:35.132Z,54.80
2019-06-01T10:27:04.835Z,54.70
2019-06-01T10:29:36.658Z,54.80
2019-06-01T10:32:09.430Z,54.70
2019-06-01T10:34:39.868Z,54.70
2019-06-01T10:37:09.559Z,54.60
2019-06-01T10:39:39.439Z,54.70
2019-06-01T10:42:09.108Z,54.70
2019-06-01T10:44:43.470Z,54.60
2019-06-01T10:47:09.684Z,54.70
2019-06-01T10:49:40.119Z,54.70
2019-06-01T10:52:10.761Z,55.00
2019-06-01T10:54:40.343Z,55.20
2019-06-01T10:57:09.756Z,55.20
2019-06-01T10:59:40.447Z,55.10
2019-06-01T11:02:10.449Z,54.70
2019-06-01T11:04:41.124Z,54.70
2019-06-01T11:07:11.918Z,54.60
2019-06-01T11:09:41.460Z,54.30
2019-06-01T11:12:10.917Z,53.70
2019-06-01T11:14:41.321Z,53.50
2019-06-01T11:17:10.822Z,53.80
2019-06-01T11:19:41.984Z,53.40
2019-06-01T11:22:14.893Z,53.20
2019-06-01T11:24:44.366Z,53.10
2019-06-01T11:27:13.839Z,53.50
2019-06-01T11:29:49.726Z,53.90
2019-06-01T11:32:14.463Z,54.20
2019-06-01T11:34:44.493Z,54.50
2019-06-01T11:37:16.100Z,53.90
2019-06-01T11:39:45.148Z,53.60
2019-06-01T11:42:14.591Z,53.20
2019-06-01T11:44:45.032Z,52.80
2019-06-01T11:47:15.602Z,52.30
2019-06-01T11:49:46.090Z,52.60
2019-06-01T11:52:15.546Z,52.60
2019-06-01T11:54:45.458Z,52.80
2019-06-01T11:57:16.026Z,52.60
2019-06-01T11:59:45.793Z,52.30
2019-06-01T12:02:15.236Z,52.00
2019-06-01T12:04:46.230Z,51.60
2019-06-01T12:07:17.949Z,51.60
2019-06-01T12:09:47.040Z,51.40
2019-06-01T12:12:16.611Z,51.50
2019-06-01T12:14:47.043Z,51.40
2019-06-01T12:17:16.560Z,51.00
2019-06-01T12:19:46.972Z,50.60
2019-06-01T12:22:16.614Z,50.60
2019-06-01T12:24:47.203Z,50.40
2019-06-01T12:27:16.934Z,50.60
2019-06-01T12:29:46.402Z,49.60
2019-06-01T12:32:15.924Z,50.00
2019-06-01T12:34:46.240Z,50.30
2019-06-01T12:37:15.875Z,51.00
2019-06-01T12:39:52.181Z,50.50
2019-06-01T12:42:19.083Z,49.60
2019-06-01T12:44:48.513Z,49.60
2019-06-01T12:47:18.046Z,49.40
2019-06-01T12:49:48.272Z,49.50
2019-06-01T12:52:17.779Z,49.00
2019-06-01T12:54:47.218Z,49.10
2019-06-01T12:57:20.139Z,49.70
2019-06-01T12:59:51.065Z,49.80
2019-06-01T13:02:20.719Z,49.10
2019-06-01T13:04:53.090Z,48.80
2019-06-01T13:07:22.868Z,48.40
2019-06-01T13:09:52.897Z,48.10
2019-06-01T13:12:22.339Z,48.40
2019-06-01T13:14:52.210Z,48.40
2019-06-01T13:17:21.814Z,48.40
2019-06-01T13:19:51.584Z,48.60
2019-06-01T13:22:21.085Z,48.00
2019-06-01T13:24:52.076Z,47.30
2019-06-01T13:27:21.674Z,46.20
2019-06-01T13:29:52.156Z,44.80
2019-06-01T13:32:21.718Z,43.70
2019-06-01T13:34:51.444Z,42.80
2019-06-01T13:37:22.350Z,42.30
2019-06-01T13:39:56.592Z,42.60
2019-06-01T13:42:22.997Z,42.60
2019-06-01T13:44:53.602Z,42.20
2019-06-01T13:47:23.151Z,41.40
2019-06-01T13:49:54.030Z,40.50
2019-06-01T13:52:23.699Z,40.10
2019-06-01T13:54:55.525Z,39.60
2019-06-01T13:57:24.976Z,38.10
2019-06-01T13:59:55.056Z,37.40
2019-06-01T14:02:27.373Z,36.40
2019-06-01T14:04:58.440Z,35.80
2019-06-01T14:07:29.864Z,36.50
2019-06-01T14:09:58.981Z,36.20
2019-06-01T14:12:28.430Z,37.30
2019-06-01T14:14:57.889Z,37.90
2019-06-01T14:17:27.343Z,37.80
2019-06-01T14:19:56.808Z,36.80
2019-06-01T14:22:26.247Z,36.00
2019-06-01T14:25:11.956Z,35.00
2019-06-01T14:27:26.843Z,34.60
2019-06-01T14:29:57.542Z,34.40
2019-06-01T14:32:27.011Z,34.10
2019-06-01T14:34:57.013Z,34.20
2019-06-01T14:37:26.498Z,32.90
2019-06-01T14:39:57.102Z,33.30
2019-06-01T14:42:26.651Z,33.30
2019-06-01T14:44:56.148Z,32.50
2019-06-01T14:47:26.755Z,32.30
2019-06-01T14:49:56.217Z,31.70
2019-06-01T14:52:25.687Z,32.00
2019-06-01T14:54:55.922Z,32.00
2019-06-01T14:57:26.546Z,32.10
2019-06-01T14:59:58.148Z,31.40
2019-06-01T15:02:27.710Z,31.50
2019-06-01T15:04:58.593Z,32.00
2019-06-01T15:07:28.177Z,33.70
2019-06-01T15:09:58.449Z,35.80
2019-06-01T15:12:28.143Z,37.90
2019-06-01T15:14:57.653Z,37.40
2019-06-01T15:17:27.346Z,35.70
2019-06-01T15:19:58.192Z,33.40
2019-06-01T15:22:27.849Z,31.90
2019-06-01T15:24:58.413Z,30.60
2019-06-01T15:27:29.021Z,29.90
2019-06-01T15:29:59.014Z,29.80
2019-06-01T15:32:28.494Z,30.70
2019-06-01T15:34:59.898Z,30.90
2019-06-01T15:37:29.063Z,30.80
2019-06-01T15:39:58.718Z,29.70
2019-06-01T15:42:28.294Z,29.00
2019-06-01T15:44:57.763Z,29.30
2019-06-01T15:47:27.194Z,28.20
2019-06-01T15:49:57.912Z,28.00
2019-06-01T15:52:28.470Z,28.10
2019-06-01T15:54:58.353Z,29.30
2019-06-01T15:57:27.992Z,32.20
2019-06-01T15:59:58.626Z,34.70
2019-06-01T16:02:28.158Z,33.50
2019-06-01T16:04:57.685Z,31.50
2019-06-01T16:07:27.605Z,32.40
2019-06-01T16:09:57.408Z,35.00
2019-06-01T16:12:26.987Z,37.30
2019-06-01T16:14:57.613Z,39.30
2019-06-01T16:17:27.066Z,41.10
2019-06-01T16:19:57.884Z,41.70
2019-06-01T16:22:27.385Z,42.40
2019-06-01T16:24:56.826Z,43.00
2019-06-01T16:27:26.334Z,43.70
2019-06-01T16:29:56.850Z,43.90
2019-06-01T16:32:26.343Z,44.60
2019-06-01T16:34:56.892Z,44.70
2019-06-01T16:37:26.336Z,45.00
2019-06-01T16:39:59.754Z,45.00
2019-06-01T16:42:26.879Z,45.50
2019-06-01T16:45:15.787Z,45.90
2019-06-01T16:47:45.259Z,46.90
2019-06-01T16:50:15.578Z,46.20
2019-06-01T16:52:45.033Z,46.40
2019-06-01T16:55:15.894Z,46.50
2019-06-01T16:57:45.412Z,46.60
2019-06-01T17:00:17.033Z,46.50
2019-06-01T17:02:46.498Z,46.70
2019-06-01T17:05:16.119Z,46.50
2019-06-01T17:07:45.578Z,46.50
2019-06-01T17:10:25.647Z,46.50
2019-06-01T17:12:47.801Z,46.60
2019-06-01T17:15:18.371Z,46.80
2019-06-01T17:17:47.883Z,46.90
2019-06-01T17:20:37.570Z,47.10
2019-06-01T17:23:24.318Z,47.00
2019-06-01T17:25:39.241Z,47.20
2019-06-01T17:28:09.270Z,47.20
2019-06-01T17:30:38.906Z,47.10
2019-06-01T17:33:08.622Z,46.90
2019-06-01T17:35:38.291Z,47.70
2019-06-01T17:38:09.087Z,47.50
2019-06-01T17:40:42.803Z,47.90
2019-06-01T17:43:10.894Z,48.20
2019-06-01T17:45:41.650Z,48.30
2019-06-01T17:48:24.746Z,48.20
2019-06-01T17:50:42.368Z,47.70
2019-06-01T17:53:12.906Z,47.90
2019-06-01T17:55:42.832Z,47.80
2019-06-01T17:58:12.689Z,47.80
2019-06-01T18:00:43.619Z,47.70
2019-06-01T18:03:14.315Z,47.80
2019-06-01T18:05:45.015Z,48.00
2019-06-01T18:08:15.184Z,48.00
2019-06-01T18:10:53.786Z,48.40
2019-06-01T18:13:15.794Z,48.10
2019-06-01T18:15:45.274Z,48.00
2019-06-01T18:18:14.832Z,48.20
2019-06-01T18:20:44.412Z,48.30
2019-06-01T18:23:13.956Z,48.70
2019-06-01T18:25:43.576Z,48.90
2019-06-01T18:28:18.548Z,49.10
2019-06-01T18:30:45.157Z,49.10
2019-06-01T18:33:14.634Z,49.30
2019-06-01T18:35:44.184Z,49.50
2019-06-01T18:38:14.837Z,49.70
2019-06-01T18:40:44.505Z,49.50
2019-06-01T18:43:17.415Z,49.70
2019-06-01T18:45:48.158Z,49.70
2019-06-01T18:48:18.869Z,50.00
2019-06-01T18:50:48.581Z,50.30
2019-06-01T18:53:20.484Z,50.30
2019-06-01T18:55:51.079Z,50.10
2019-06-01T18:58:20.627Z,50.30
2019-06-01T19:00:51.444Z,50.50
2019-06-01T19:03:22.440Z,50.60
2019-06-01T19:05:53.083Z,51.00
2019-06-01T19:08:22.533Z,51.20
2019-06-01T19:10:52.191Z,51.50
2019-06-01T19:13:21.750Z,51.60
2019-06-01T19:15:51.340Z,51.90
2019-06-01T19:18:20.910Z,52.00
2019-06-01T19:20:50.386Z,52.50
2019-06-01T19:23:22.481Z,52.80
2019-06-01T19:25:52.599Z,53.50
2019-06-01T19:28:22.072Z,54.00
2019-06-01T19:30:51.684Z,54.20
2019-06-01T19:33:21.116Z,54.50
2019-06-01T19:35:52.484Z,55.00
2019-06-01T19:38:22.316Z,55.10
2019-06-01T19:40:51.850Z,55.30
2019-06-01T19:43:21.315Z,55.70
2019-06-01T19:45:53.679Z,56.10
2019-06-01T19:48:23.129Z,56.30
2019-06-01T19:50:52.610Z,56.50
2019-06-01T19:53:25.129Z,56.60
2019-06-01T19:55:59.786Z,57.00
2019-06-01T19:58:34.568Z,57.10
2019-06-01T20:01:04.087Z,57.50
2019-06-01T20:03:35.091Z,57.90
2019-06-01T20:06:04.724Z,58.00
2019-06-01T20:08:34.260Z,58.20
2019-06-01T20:11:03.784Z,58.40
2019-06-01T20:13:33.383Z,58.60
2019-06-01T20:16:02.894Z,58.80
2019-06-01T20:18:32.337Z,59.70
2019-06-01T20:21:01.839Z,59.30
2019-06-01T20:23:31.380Z,59.70
2019-06-01T20:26:00.800Z,59.80
2019-06-01T20:28:30.330Z,60.00
2019-06-01T20:30:59.779Z,60.40
2019-06-01T20:33:29.331Z,60.70
2019-06-01T20:35:58.799Z,61.10
2019-06-01T20:38:28.337Z,61.50
2019-06-01T20:40:57.783Z,61.60
2019-06-01T20:43:27.244Z,61.80
2019-06-01T20:45:57.089Z,62.10
2019-06-01T20:48:26.790Z,62.20
2019-06-01T20:50:56.252Z,62.60
2019-06-01T20:53:25.711Z,62.90
2019-06-01T20:55:55.154Z,63.60
2019-06-01T20:58:25.034Z,63.70
2019-06-01T21:00:54.995Z,63.90
2019-06-01T21:03:24.553Z,64.50
2019-06-01T21:05:53.994Z,65.20
2019-06-01T21:08:24.162Z,65.70
2019-06-01T21:10:54.862Z,66.20
2019-06-01T21:13:24.419Z,66.50
2019-06-01T21:15:54.048Z,67.10
2019-06-01T21:18:25.268Z,67.50
2019-06-01T21:20:54.999Z,68.00
2019-06-01T21:23:25.283Z,68.10
2019-06-01T21:25:55.610Z,68.40
2019-06-01T21:28:25.712Z,68.70
2019-06-01T21:30:55.587Z,69.20
2019-06-01T21:33:28.165Z,69.40
2019-06-01T21:35:56.105Z,69.80
2019-06-01T21:38:38.688Z,70.00
2019-06-01T21:41:09.767Z,70.00
2019-06-01T21:43:39.225Z,69.70
2019-06-01T21:46:09.638Z,70.70
2019-06-01T21:48:39.115Z,71.20
2019-06-01T21:51:09.763Z,71.60
2019-06-01T21:53:39.358Z,71.70
2019-06-01T21:56:08.825Z,71.80
2019-06-01T21:58:38.257Z,72.50
2019-06-01T22:01:07.856Z,72.50
2019-06-01T22:03:37.296Z,72.70
2019-06-01T22:06:06.847Z,72.80
2019-06-01T22:08:36.305Z,73.30
2019-06-01T22:11:05.735Z,73.30
2019-06-01T22:13:35.205Z,73.80
2019-06-01T22:16:04.754Z,73.70
2019-06-01T22:18:34.184Z,73.70
2019-06-01T22:21:03.665Z,73.80
2019-06-01T22:23:33.105Z,73.90
2019-06-01T22:26:02.551Z,74.10
2019-06-01T22:28:32.011Z,74.30
2019-06-01T22:31:01.772Z,74.30
2019-06-01T22:33:31.374Z,74.10
2019-06-01T22:36:01.371Z,74.10
2019-06-01T22:38:34.916Z,74.40
2019-06-01T22:41:06.032Z,74.70
2019-06-01T22:43:45.445Z,74.80
2019-06-01T22:46:06.622Z,75.00
2019-06-01T22:48:36.022Z,75.20
2019-06-01T22:51:11.570Z,75.30
2019-06-01T22:53:42.223Z,75.30
2019-06-01T22:56:11.748Z,75.30
2019-06-01T22:58:41.339Z,75.50
2019-06-01T23:01:10.801Z,75.60
2019-06-01T23:03:40.318Z,76.50
2019-06-01T23:06:09.783Z,75.80
2019-06-01T23:08:39.224Z,76.10
2019-06-01T23:11:08.762Z,76.60
2019-06-01T23:13:52.192Z,76.50
2019-06-01T23:16:09.339Z,77.00
2019-06-01T23:18:38.917Z,77.10
2019-06-01T23:21:08.359Z,77.40
2019-06-01T23:23:37.832Z,77.60
2019-06-01T23:26:08.359Z,78.10
2019-06-01T23:28:38.823Z,78.20
2019-06-01T23:31:08.398Z,78.50
2019-06-01T23:33:37.853Z,78.60
2019-06-01T23:36:07.331Z,78.90
2019-06-01T23:38:36.870Z,78.90
2019-06-01T23:41:06.371Z,79.00
2019-06-01T23:43:35.821Z,79.00
2019-06-01T23:46:05.355Z,79.20
2019-06-01T23:48:34.811Z,79.50
2019-06-01T23:51:04.442Z,79.50
2019-06-01T23:53:33.937Z,79.60
2019-06-01T23:56:03.402Z,80.00
2019-06-01T23:58:32.877Z,80.20
